Time;durP1;ratioP1;P1;durP2;ratioP2;P2;SDS_P1;SDS_P2;PMS_P1;PMS_P2;Temp;Humidity;BMP_temperature;BMP_pressure;BME280_temperature;BME280_humidity;BME280_pressure;Samples;Min_cycle;Max_cycle;Signal;HPM_P1;HPM_P2
2021/07/12 00:00:21;;;;;;;15.70;8.87;;;;;;;20.39;69.83;98933.25;263224;1093;115464;-66
2021/07/12 00:05:45;;;;;;;12.63;8.33;;;;;;;20.40;69.88;98926.82;263248;1093;115079;-68
2021/07/12 00:10:49;;;;;;;9.60;7.60;;;;;;;20.37;69.94;98927.14;263085;1095;114680;-68
2021/07/12 00:15:53;;;;;;;10.43;8.28;;;;;;;20.30;69.76;98923.38;263233;1094;114404;-67
2021/07/12 00:20:57;;;;;;;11.43;7.03;;;;;;;20.24;69.82;98915.91;263204;1094;114553;-69
2021/07/12 00:26:03;;;;;;;;;;;;;;;20.21;69.59;98910.82;262717;1095;114764;-67
2021/07/12 00:31:07;;;;;;;11.33;7.93;;;;;;;20.14;69.79;98923.28;262522;1094;101939;-67
2021/07/12 00:36:12;;;;;;;15.00;8.37;;;;;;;20.09;69.74;98924.61;263230;1093;114610;-67
2021/07/12 00:41:16;;;;;;;11.53;8.85;;;;;;;20.02;69.70;98928.11;263174;1095;114790;-67
2021/07/12 00:46:20;;;;;;;13.23;8.10;;;;;;;19.96;69.73;98926.03;263178;1096;114834;-66
2021/07/12 00:51:24;;;;;;;12.93;7.63;;;;;;;19.92;70.00;98933.61;263253;1093;115081;-66
2021/07/12 00:56:30;;;;;;;12.57;7.90;;;;;;;19.90;69.64;98932.06;263073;1093;115095;-69
2021/07/12 01:01:36;;;;;;;11.47;8.23;;;;;;;19.84;69.72;98920.05;263260;1093;115170;-68
2021/07/12 01:06:44;;;;;;;18.27;8.03;;;;;;;19.78;69.76;98915.27;263208;1093;115269;-68
2021/07/12 01:11:56;;;;;;;11.60;7.15;;;;;;;19.72;69.88;98910.49;263201;1095;115104;-67
2021/07/12 01:17:13;;;;;;;12.50;6.80;;;;;;;19.70;69.75;98902.56;263227;1095;115065;-68
2021/07/12 01:22:19;;;;;;;12.10;7.30;;;;;;;19.68;69.87;98904.56;263224;1093;114878;-67
2021/07/12 01:27:23;;;;;;;13.73;7.13;;;;;;;19.64;70.00;98903.18;263266;1093;115012;-67
2021/07/12 01:32:48;;;;;;;11.48;7.15;;;;;;;19.57;70.02;98900.22;263165;1093;114910;-68
2021/07/12 01:38:06;;;;;;;11.97;6.50;;;;;;;19.51;69.88;98906.23;262852;1093;115227;-67
2021/07/12 01:43:25;;;;;;;12.33;6.53;;;;;;;19.47;69.74;98918.35;263223;1091;115878;-68
2021/07/12 01:48:38;;;;;;;13.17;6.37;;;;;;;19.41;70.03;98900.08;262999;1093;115214;-67
2021/07/12 01:53:51;;;;;;;12.33;7.17;;;;;;;19.37;70.46;98898.70;263019;1093;115763;-68
2021/07/12 01:59:04;;;;;;;11.20;6.87;;;;;;;19.31;70.14;98904.70;262791;1093;114338;-67
2021/07/12 02:04:12;;;;;;;8.38;5.95;;;;;;;19.25;70.15;98911.55;263048;1093;114889;-68
2021/07/12 02:09:20;;;;;;;8.20;6.00;;;;;;;19.24;70.20;98911.72;262800;1095;114845;-72
2021/07/12 02:14:29;;;;;;;8.43;6.37;;;;;;;19.24;70.48;98907.16;263047;1093;114882;-69
2021/07/12 02:19:35;;;;;;;10.47;6.73;;;;;;;19.22;70.25;98895.66;263112;1095;115199;-70
2021/07/12 02:24:44;;;;;;;10.23;6.85;;;;;;;19.20;70.63;98904.94;262806;1096;114486;-68
2021/07/12 02:29:51;;;;;;;9.18;5.95;;;;;;;19.20;70.71;98886.05;263221;1096;115110;-67
2021/07/12 02:34:59;;;;;;;12.13;6.23;;;;;;;19.21;70.74;98868.85;262912;1096;114752;-67
2021/07/12 02:40:08;;;;;;;10.60;6.37;;;;;;;19.27;70.88;98868.24;262518;1096;115353;-67
2021/07/12 02:45:13;;;;;;;9.00;7.00;;;;;;;19.31;70.52;98883.11;263098;1094;114606;-68
2021/07/12 02:50:21;;;;;;;10.50;6.57;;;;;;;19.29;70.79;98880.59;261977;1096;114814;-68
2021/07/12 02:55:27;;;;;;;9.00;6.00;;;;;;;19.25;70.52;98892.66;263213;1093;114775;-68
2021/07/12 03:00:31;;;;;;;8.57;5.97;;;;;;;19.26;70.22;98896.20;262442;1093;114579;-64
2021/07/12 03:05:35;;;;;;;12.28;8.18;;;;;;;19.30;70.69;98903.86;263258;1093;115171;-67
2021/07/12 03:10:55;;;;;;;14.23;10.37;;;;;;;19.29;70.54;98899.47;262328;1095;115121;-66
2021/07/12 03:16:01;;;;;;;21.77;14.57;;;;;;;19.26;70.77;98904.30;262257;1096;114857;-72
2021/07/12 03:21:07;;;;;;;33.03;19.78;;;;;;;19.22;70.83;98902.92;261686;1094;115097;-69
2021/07/12 03:26:16;;;;;;;32.28;19.03;;;;;;;19.12;70.73;98906.55;263178;1094;115414;-66
2021/07/12 03:31:27;;;;;;;38.03;19.50;;;;;;;19.11;70.80;98906.69;263159;1093;114863;-64
2021/07/12 03:36:32;;;;;;;31.27;20.70;;;;;;;19.14;70.92;98906.39;263210;1094;114981;-72
2021/07/12 03:41:38;;;;;;;32.17;19.53;;;;;;;19.13;71.47;98902.00;262731;1095;115683;-67
2021/07/12 03:46:43;;;;;;;34.40;20.87;;;;;;;19.18;71.09;98912.33;263155;1095;115092;-65
2021/07/12 03:51:51;;;;;;;43.80;24.00;;;;;;;19.21;71.20;98912.02;263052;1094;116313;-67
2021/07/12 03:56:55;;;;;;;48.97;31.77;;;;;;;19.60;72.94;98918.81;263216;1095;116056;-67
2021/07/12 04:01:58;;;;;;;59.93;41.93;;;;;;;20.14;72.57;98904.36;262995;1093;115587;-65
2021/07/12 04:07:03;;;;;;;42.90;28.00;;;;;;;20.64;72.74;98890.97;263244;1093;115357;-70
2021/07/12 04:12:07;;;;;;;50.83;33.37;;;;;;;21.10;72.22;98888.76;262803;1095;115635;-67
2021/07/12 04:17:11;;;;;;;49.75;27.88;;;;;;;21.35;70.72;98880.70;262678;1093;115453;-68
2021/07/12 04:22:14;;;;;;;36.40;22.40;;;;;;;21.29;70.21;98878.63;263092;1096;115496;-68
2021/07/12 04:27:19;;;;;;;36.48;22.23;;;;;;;21.31;70.43;98877.45;263159;1093;115444;-67
2021/07/12 04:32:22;;;;;;;;;;;;;;;21.35;69.85;98872.58;262864;1093;115076;-67
2021/07/12 04:37:26;;;;;;;28.78;18.73;;;;;;;21.40;69.65;98887.31;263255;1093;101576;-66
2021/07/12 04:42:30;;;;;;;27.98;17.78;;;;;;;21.14;68.67;98894.69;263225;1095;115546;-69
2021/07/12 04:47:34;;;;;;;23.73;14.93;;;;;;;20.87;68.60;98907.46;263218;1096;115094;-65
2021/07/12 04:52:38;;;;;;;20.48;15.13;;;;;;;20.65;68.92;98911.62;262755;1095;115122;-66
2021/07/12 04:57:45;;;;;;;22.20;13.73;;;;;;;20.52;69.15;98914.77;263178;1095;114948;-66
2021/07/12 05:02:49;;;;;;;19.85;13.83;;;;;;;20.44;69.31;98916.53;263221;1094;116081;-65
2021/07/12 05:07:52;;;;;;;20.40;15.27;;;;;;;20.42;69.62;98918.56;263103;1094;115272;-66
2021/07/12 05:12:56;;;;;;;21.77;16.55;;;;;;;20.42;69.88;98911.30;263319;1092;115577;-64
2021/07/12 05:18:00;;;;;;;30.45;19.95;;;;;;;20.37;69.90;98916.33;262761;1093;115070;-65
2021/07/12 05:23:03;;;;;;;31.97;19.43;;;;;;;20.30;69.94;98905.31;263140;1093;115589;-63
2021/07/12 05:28:07;;;;;;;22.43;17.93;;;;;;;20.26;69.83;98909.34;263151;1095;115317;-66
2021/07/12 05:33:11;;;;;;;26.35;18.00;;;;;;;20.18;69.69;98912.02;263214;1093;115005;-66
2021/07/12 05:38:14;;;;;;;22.40;17.25;;;;;;;20.12;69.92;98901.84;263051;1094;114768;-66
2021/07/12 05:43:18;;;;;;;18.48;14.00;;;;;;;20.06;69.98;98886.25;262978;1093;115761;-70
2021/07/12 05:48:22;;;;;;;19.23;14.30;;;;;;;20.08;70.15;98884.25;263174;1096;115033;-63
2021/07/12 05:53:26;;;;;;;14.73;11.23;;;;;;;20.09;70.29;98888.64;262860;1093;114897;-70
2021/07/12 05:58:30;;;;;;;14.90;11.00;;;;;;;20.12;70.46;98892.89;263187;1096;115067;-73
2021/07/12 06:03:33;;;;;;;16.55;12.10;;;;;;;20.20;70.94;98903.73;263183;1095;116189;-68
2021/07/12 06:08:37;;;;;;;16.15;11.38;;;;;;;20.29;70.78;98897.38;263213;1093;114972;-68
2021/07/12 06:13:40;;;;;;;15.13;10.40;;;;;;;20.37;70.63;98894.70;263162;1095;114941;-66
2021/07/12 06:18:44;;;;;;;80.40;58.45;;;;;;;20.53;71.28;98897.52;263211;1095;115766;-69
2021/07/12 06:23:48;;;;;;;18.53;14.40;;;;;;;20.90;71.46;98901.72;263176;1095;115477;-72
2021/07/12 06:28:52;;;;;;;18.05;13.70;;;;;;;21.18;71.37;98896.04;263165;1093;115338;-70
2021/07/12 06:33:55;;;;;;;23.85;19.85;;;;;;;21.41;70.96;98893.57;263193;1093;115411;-69
2021/07/12 06:38:59;;;;;;;15.43;11.78;;;;;;;21.63;70.69;98902.88;262794;1094;115066;-71
2021/07/12 06:44:03;;;;;;;15.60;11.80;;;;;;;21.76;70.27;98905.92;262569;1093;114951;-69
2021/07/12 06:49:08;;;;;;;15.33;11.00;;;;;;;21.91;70.76;98895.27;263170;1095;116241;-67
2021/07/12 06:54:12;;;;;;;18.30;11.73;;;;;;;22.00;69.98;98880.66;263188;1092;115319;-66
2021/07/12 06:59:16;;;;;;;14.48;10.40;;;;;;;22.03;69.88;98871.35;263049;1093;115470;-67
2021/07/12 07:04:19;;;;;;;11.88;9.78;;;;;;;22.05;69.83;98866.63;263037;1095;115964;-68
2021/07/12 07:09:25;;;;;;;13.40;10.78;;;;;;;22.16;70.03;98877.12;262938;1095;115775;-69
2021/07/12 07:14:29;;;;;;;48.37;33.70;;;;;;;22.27;70.04;98874.03;263086;1095;115364;-68
2021/07/12 07:19:32;;;;;;;16.80;14.18;;;;;;;22.39;70.08;98882.66;263025;1093;115637;-69
2021/07/12 07:24:36;;;;;;;12.98;9.23;;;;;;;22.50;69.89;98898.54;263008;1093;116346;-68
2021/07/12 07:29:40;;;;;;;12.28;10.23;;;;;;;22.63;69.53;98900.70;263047;1093;116066;-69
2021/07/12 07:34:44;;;;;;;13.40;8.83;;;;;;;22.81;69.90;98903.16;263085;1092;116417;-68
2021/07/12 07:39:48;;;;;;;40.30;35.17;;;;;;;22.95;69.38;98891.58;263058;1093;115631;-66
2021/07/12 07:45:00;;;;;;;17.43;11.17;;;;;;;23.12;69.51;98905.91;263048;1093;115824;-67
2021/07/12 07:50:06;;;;;;;10.43;8.90;;;;;;;23.24;68.64;98903.64;263034;1092;116718;-69
2021/07/12 07:55:12;;;;;;;12.30;9.40;;;;;;;23.36;68.68;98907.62;262982;1096;115167;-69
2021/07/12 08:00:18;;;;;;;15.40;10.13;;;;;;;23.44;68.11;98920.29;263026;1096;115503;-66
2021/07/12 08:05:22;;;;;;;11.67;9.30;;;;;;;23.47;68.22;98919.94;263049;1094;115620;-69
2021/07/12 08:10:26;;;;;;;12.43;10.03;;;;;;;23.46;67.80;98919.09;262942;1095;115294;-72
2021/07/12 08:15:30;;;;;;;;;;;;;;;23.45;67.62;98920.13;263236;1092;115728;-67
2021/07/12 08:20:34;;;;;;;14.67;9.23;;;;;;;23.45;67.65;98911.14;262866;1093;101403;-70
2021/07/12 08:25:38;;;;;;;377.50;274.78;;;;;;;23.49;67.72;98912.45;263260;1092;115751;-67
2021/07/12 08:30:42;;;;;;;18.03;13.45;;;;;;;23.53;67.53;98906.47;262985;1092;116701;-68
2021/07/12 08:35:46;;;;;;;20.28;11.80;;;;;;;23.53;67.43;98911.06;263332;1093;114960;-65
2021/07/12 08:40:52;;;;;;;13.50;9.40;;;;;;;23.52;67.60;98917.53;263266;1092;115164;-68
2021/07/12 08:45:57;;;;;;;11.57;10.37;;;;;;;23.53;67.40;98914.63;263341;1092;114761;-68
2021/07/12 08:51:01;;;;;;;13.80;11.40;;;;;;;23.53;67.00;98911.06;263354;1093;114983;-70
2021/07/12 08:56:05;;;;;;;16.03;12.00;;;;;;;23.52;67.20;98917.53;262495;1092;115160;-68
2021/07/12 09:01:09;;;;;;;13.88;12.13;;;;;;;23.50;67.12;98923.13;262756;1093;115168;-71
2021/07/12 09:06:16;;;;;;;13.50;10.87;;;;;;;23.49;67.26;98935.03;263266;1092;114730;-70
2021/07/12 09:11:29;;;;;;;14.40;10.60;;;;;;;23.52;66.94;98942.83;262707;1092;114826;-70
2021/07/12 09:16:37;;;;;;;16.90;11.13;;;;;;;23.52;66.77;98956.41;262779;1093;115580;-67
2021/07/12 09:21:53;;;;;;;17.77;11.50;;;;;;;23.51;66.44;98962.88;263306;1093;114649;-68
2021/07/12 09:27:03;;;;;;;13.37;10.00;;;;;;;23.48;66.29;98973.26;263377;1093;114935;-76
2021/07/12 09:32:16;;;;;;;13.63;9.17;;;;;;;23.46;66.22;98989.72;262369;1092;115059;-70
2021/07/12 09:37:21;;;;;;;16.70;10.57;;;;;;;23.44;66.18;98991.79;263374;1092;114801;-71
2021/07/12 09:42:32;;;;;;;13.93;10.55;;;;;;;23.46;66.26;98987.00;263355;1093;114897;-66
2021/07/12 09:47:38;;;;;;;15.67;10.27;;;;;;;23.44;65.78;98970.06;263359;1092;115607;-72
2021/07/12 09:52:47;;;;;;;12.90;10.83;;;;;;;23.43;65.83;98953.92;262850;1093;115228;-70
2021/07/12 09:58:16;;;;;;;14.23;10.60;;;;;;;23.40;65.99;98949.69;263404;1092;116676;-70
2021/07/12 10:03:22;;;;;;;11.53;9.28;;;;;;;23.43;65.86;98954.77;263305;1092;115078;-74
2021/07/12 10:08:25;;;;;;;20.30;10.80;;;;;;;23.45;66.16;98951.88;263359;1093;114761;-69
2021/07/12 10:13:29;;;;;;;14.93;11.25;;;;;;;23.44;65.99;98951.05;263274;1092;114662;-68
2021/07/12 10:18:33;;;;;;;14.80;11.75;;;;;;;23.40;66.11;98956.99;263306;1093;114834;-67
2021/07/12 10:23:37;;;;;;;11.85;9.68;;;;;;;23.32;66.08;98947.88;263247;1092;114858;-66
2021/07/12 10:28:43;;;;;;;15.58;10.58;;;;;;;23.29;66.10;98955.53;263141;1092;115223;-70
2021/07/12 10:33:47;;;;;;;12.70;11.30;;;;;;;23.27;66.34;98957.60;263215;1093;115505;-69
2021/07/12 10:38:53;;;;;;;16.48;11.98;;;;;;;23.24;66.39;98968.81;263241;1092;114888;-69
2021/07/12 10:44:00;;;;;;;18.57;12.50;;;;;;;23.16;66.28;98972.39;263152;1092;115175;-71
2021/07/12 10:49:25;;;;;;;15.07;10.63;;;;;;;23.09;66.12;98963.27;263214;1092;115652;-71
2021/07/12 10:55:00;;;;;;;16.53;11.13;;;;;;;23.09;66.36;98966.83;263140;1092;115069;-71
2021/07/12 11:00:10;;;;;;;16.85;11.78;;;;;;;23.09;66.67;98961.40;263240;1093;115057;-72
2021/07/12 11:05:15;;;;;;;14.17;12.47;;;;;;;23.09;66.64;98952.41;263208;1093;115072;-72
2021/07/12 11:10:38;;;;;;;27.97;15.40;;;;;;;23.11;66.89;98934.09;263141;1093;115209;-71
2021/07/12 11:15:45;;;;;;;37.53;16.67;;;;;;;23.21;67.18;98936.58;263233;1092;115274;-77
2021/07/12 11:21:09;;;;;;;22.33;12.80;;;;;;;23.22;67.11;98927.41;263224;1093;115026;-69
2021/07/12 11:26:19;;;;;;;357.00;259.83;;;;;;;23.24;67.25;98936.23;263237;1092;115466;-70
2021/07/12 11:31:48;;;;;;;48.03;33.83;;;;;;;23.25;66.79;98951.48;263126;1092;116850;-72
2021/07/12 11:36:58;;;;;;;50.67;38.03;;;;;;;23.20;66.75;98948.45;263235;1093;115303;-73
2021/07/12 11:42:31;;;;;;;19.10;15.40;;;;;;;23.14;66.62;98942.72;263054;1092;115183;-71
2021/07/12 11:47:43;;;;;;;11.80;10.13;;;;;;;23.09;66.43;98923.39;262933;1093;116427;-69
2021/07/12 11:52:52;;;;;;;15.30;9.83;;;;;;;23.07;66.43;98932.77;263189;1092;115117;-77
2021/07/12 11:57:59;;;;;;;19.63;9.50;;;;;;;23.06;66.62;98945.49;263201;1096;114898;-71
2021/07/12 12:03:08;;;;;;;19.70;11.57;;;;;;;23.04;66.67;98943.97;263282;1093;114767;-72
2021/07/12 12:08:17;;;;;;;17.67;10.80;;;;;;;23.01;66.70;98944.32;263223;1093;115303;-71
2021/07/12 12:13:23;;;;;;;17.07;10.60;;;;;;;22.97;66.60;98937.56;263161;1093;116165;-75
2021/07/12 12:18:29;;;;;;;12.03;9.00;;;;;;;22.89;66.59;98931.13;263245;1093;114935;-71
2021/07/12 12:23:36;;;;;;;10.13;7.30;;;;;;;22.85;66.53;98934.34;263128;1092;115661;-71
2021/07/12 12:28:55;;;;;;;8.15;6.45;;;;;;;22.82;66.48;98949.10;263200;1093;115199;-71
2021/07/12 12:34:17;;;;;;;11.80;7.67;;;;;;;22.76;66.07;98974.25;263201;1094;114725;-69
2021/07/12 12:39:21;;;;;;;11.10;7.60;;;;;;;22.63;66.19;99022.78;263165;1093;114845;-71
2021/07/12 12:44:34;;;;;;;15.30;9.13;;;;;;;22.48;66.35;98995.49;263219;1095;115068;-74
2021/07/12 12:49:40;;;;;;;10.37;6.57;;;;;;;22.31;66.63;98985.69;263178;1093;115110;-72
2021/07/12 12:54:47;;;;;;;9.57;6.87;;;;;;;22.25;66.93;98945.70;263186;1093;115659;-70
2021/07/12 12:59:50;;;;;;;8.37;6.50;;;;;;;22.23;67.05;98937.76;263223;1093;114840;-68
2021/07/12 13:04:57;;;;;;;11.35;7.40;;;;;;;22.29;67.60;98936.23;262360;1092;114755;-70
2021/07/12 13:10:11;;;;;;;10.33;6.07;;;;;;;22.15;66.88;98951.34;262750;1093;115022;-70
2021/07/12 13:15:17;;;;;;;9.40;5.53;;;;;;;22.07;67.27;98938.58;262129;1093;114883;-70
2021/07/12 13:20:27;;;;;;;14.83;6.77;;;;;;;22.17;67.56;98941.99;263294;1093;114964;-71
2021/07/12 13:25:42;;;;;;;8.40;6.70;;;;;;;22.15;67.56;98926.94;263157;1093;115276;-70
2021/07/12 13:30:48;;;;;;;9.50;6.20;;;;;;;22.12;67.41;98954.36;263114;1095;114724;-71
2021/07/12 13:35:54;;;;;;;7.57;5.33;;;;;;;22.01;67.34;98970.94;263045;1093;115427;-73
2021/07/12 13:40:58;;;;;;;9.18;6.15;;;;;;;21.91;67.25;98969.27;261912;1093;114822;-70
2021/07/12 13:46:02;;;;;;;7.60;6.33;;;;;;;21.92;67.78;98979.09;263094;1093;114894;-77
2021/07/12 13:51:06;;;;;;;9.28;6.93;;;;;;;22.14;68.37;98950.44;262867;1093;115233;-71
2021/07/12 13:56:09;;;;;;;12.70;6.15;;;;;;;22.15;67.59;98968.45;263019;1093;114999;-71
2021/07/12 14:01:13;;;;;;;55.03;41.38;;;;;;;22.11;67.41;98968.91;263111;1095;115177;-69
2021/07/12 14:06:17;;;;;;;51.45;40.73;;;;;;;22.12;67.83;98970.62;262612;1092;115170;-71
2021/07/12 14:11:22;;;;;;;14.37;11.70;;;;;;;22.22;68.21;98940.66;263083;1093;114915;-69
2021/07/12 14:16:25;;;;;;;;;;;;;;;22.39;68.30;98905.19;262903;1093;115254;-71
2021/07/12 14:21:29;;;;;;;22.50;16.53;;;;;;;22.53;68.25;98905.48;262424;1093;101960;-71
2021/07/12 14:26:34;;;;;;;18.43;11.20;;;;;;;22.64;67.90;98891.53;263034;1093;115235;-72
2021/07/12 14:31:39;;;;;;;26.40;17.60;;;;;;;22.71;67.66;98881.66;263075;1094;115542;-71
2021/07/12 14:36:42;;;;;;;33.67;24.00;;;;;;;22.74;67.86;98881.31;263050;1095;114970;-77
2021/07/12 14:41:47;;;;;;;29.68;20.35;;;;;;;22.78;67.92;98879.93;262999;1093;115651;-71
2021/07/12 14:46:50;;;;;;;17.53;11.25;;;;;;;22.80;67.54;98877.06;263038;1093;115229;-71
2021/07/12 14:51:54;;;;;;;14.93;8.45;;;;;;;22.77;67.32;98880.97;263062;1095;115395;-71
2021/07/12 14:56:59;;;;;;;17.73;8.43;;;;;;;22.66;67.41;98860.50;263040;1092;114589;-72
2021/07/12 15:02:05;;;;;;;11.73;8.38;;;;;;;22.64;67.22;98850.84;263110;1092;115066;-71
2021/07/12 15:07:09;;;;;;;13.43;8.40;;;;;;;22.62;67.90;98859.17;263050;1094;114957;-68
2021/07/12 15:12:13;;;;;;;10.88;6.55;;;;;;;22.56;66.97;98868.01;262997;1095;115034;-71
2021/07/12 15:17:17;;;;;;;15.28;7.85;;;;;;;22.39;66.75;98848.23;263054;1095;116078;-70
2021/07/12 15:22:21;;;;;;;11.73;6.73;;;;;;;22.30;67.03;98834.88;263093;1096;115623;-71
2021/07/12 15:27:24;;;;;;;11.28;6.33;;;;;;;22.28;67.28;98829.66;263066;1094;115345;-69
2021/07/12 15:32:28;;;;;;;11.90;6.45;;;;;;;22.22;67.73;98814.08;263018;1095;115373;-77
2021/07/12 15:37:32;;;;;;;6.95;4.80;;;;;;;22.19;67.38;98838.82;263019;1093;115999;-71
2021/07/12 15:42:36;;;;;;;11.65;5.20;;;;;;;22.04;66.96;98833.22;262989;1093;116117;-70
2021/07/12 15:47:44;;;;;;;11.58;5.95;;;;;;;22.07;67.45;98868.11;262924;1093;116000;-70
2021/07/12 15:52:48;;;;;;;14.97;7.00;;;;;;;22.03;67.89;98817.15;263024;1093;115942;-71
2021/07/12 15:57:51;;;;;;;12.85;7.35;;;;;;;21.94;67.67;98822.61;262991;1093;116238;-71
2021/07/12 16:02:55;;;;;;;10.60;5.80;;;;;;;21.89;67.84;98830.39;263059;1093;114748;-72
2021/07/12 16:07:59;;;;;;;382.88;318.38;;;;;;;21.89;67.88;98816.84;263033;1094;115019;-71
2021/07/12 16:13:04;;;;;;;34.27;27.00;;;;;;;21.87;68.12;98818.03;263032;1093;116102;-69
2021/07/12 16:18:10;;;;;;;15.03;10.97;;;;;;;21.82;68.33;98806.88;263058;1096;115863;-73
2021/07/12 16:23:13;;;;;;;24.77;19.40;;;;;;;21.92;68.30;98802.11;263002;1093;115760;-70
2021/07/12 16:28:18;;;;;;;13.38;11.20;;;;;;;22.10;68.86;98791.88;262960;1095;115544;-69
2021/07/12 16:33:26;;;;;;;7.50;5.30;;;;;;;22.20;68.52;98783.58;263044;1093;115198;-72
2021/07/12 16:38:30;;;;;;;8.87;6.07;;;;;;;22.22;68.15;98803.23;263001;1095;115970;-69
2021/07/12 16:43:34;;;;;;;6.95;5.80;;;;;;;22.22;68.02;98803.23;263039;1093;115824;-71
2021/07/12 16:48:56;;;;;;;13.03;7.90;;;;;;;22.14;67.94;98793.21;263052;1093;116164;-72
2021/07/12 16:54:00;;;;;;;11.53;6.30;;;;;;;22.11;68.33;98784.59;263020;1093;115818;-74
2021/07/12 16:59:05;;;;;;;10.60;6.27;;;;;;;22.15;68.21;98780.56;263034;1093;115590;-72
2021/07/12 17:04:09;;;;;;;12.13;8.05;;;;;;;22.27;68.83;98772.88;263009;1093;115746;-75
2021/07/12 17:09:12;;;;;;;103.95;69.38;;;;;;;22.27;68.64;98786.43;263068;1095;114625;-73
2021/07/12 17:14:20;;;;;;;25.63;16.85;;;;;;;22.22;68.17;98789.68;263090;1096;116124;-75
2021/07/12 17:19:24;;;;;;;17.47;11.03;;;;;;;22.13;68.51;98801.53;262992;1095;115418;-72
2021/07/12 17:24:27;;;;;;;18.18;10.03;;;;;;;22.04;68.68;98825.09;263056;1094;115275;-71
2021/07/12 17:29:31;;;;;;;15.30;8.15;;;;;;;21.89;68.39;98792.45;263056;1092;115594;-71
2021/07/12 17:34:35;;;;;;;14.63;8.65;;;;;;;21.79;68.10;98794.52;263066;1092;115110;-74
2021/07/12 17:39:39;;;;;;;14.63;7.68;;;;;;;21.63;67.98;98794.54;263039;1095;115720;-69
2021/07/12 17:44:43;;;;;;;11.68;7.08;;;;;;;21.58;68.82;98807.77;263013;1095;114682;-71
2021/07/12 17:49:46;;;;;;;11.73;6.60;;;;;;;21.58;68.86;98791.52;263066;1094;115587;-68
2021/07/12 17:54:50;;;;;;;8.45;5.20;;;;;;;21.53;68.14;98793.88;263024;1096;115806;-70
2021/07/12 17:59:54;;;;;;;8.23;5.25;;;;;;;21.50;68.72;98800.47;263138;1094;116113;-71
2021/07/12 18:04:59;;;;;;;6.68;5.18;;;;;;;21.51;69.02;98801.34;263042;1095;115619;-69
2021/07/12 18:10:06;;;;;;;6.80;4.03;;;;;;;21.56;69.23;98790.83;263032;1093;116252;-74
2021/07/12 18:15:11;;;;;;;3.85;3.15;;;;;;;21.56;68.84;98788.97;263062;1093;115178;-75
2021/07/12 18:20:16;;;;;;;4.30;3.73;;;;;;;21.48;68.71;98781.70;261315;1093;115941;-68
2021/07/12 18:25:20;;;;;;;7.07;4.00;;;;;;;21.36;69.12;98779.50;263051;1092;115926;-68
2021/07/12 18:30:23;;;;;;;4.68;4.15;;;;;;;21.23;68.68;98796.25;263106;1092;115774;-70
2021/07/12 18:35:27;;;;;;;9.08;5.88;;;;;;;21.28;69.42;98769.51;263147;1093;114676;-72
2021/07/12 18:40:31;;;;;;;51.83;34.15;;;;;;;21.40;69.66;98761.90;263262;1093;114911;-69
2021/07/12 18:45:35;;;;;;;11.78;7.90;;;;;;;21.51;69.43;98768.84;263205;1093;115700;-69
2021/07/12 18:50:43;;;;;;;12.33;7.58;;;;;;;21.53;69.10;98783.88;262727;1092;114613;-71
2021/07/12 18:55:55;;;;;;;12.97;7.50;;;;;;;21.42;68.80;98805.91;261066;1092;117844;-69
2021/07/12 19:01:07;;;;;;;13.93;8.50;;;;;;;21.20;68.85;98761.41;260905;1092;114749;-69
2021/07/12 19:06:19;;;;;;;15.33;8.50;;;;;;;21.03;69.33;98744.32;262139;1092;115856;-69
2021/07/12 19:11:24;;;;;;;65.80;53.23;;;;;;;20.92;69.23;98780.67;262833;1091;115928;-71
2021/07/12 19:16:31;;;;;;;28.93;21.53;;;;;;;20.91;69.88;98778.13;261723;1093;115279;-67
2021/07/12 19:21:36;;;;;;;11.97;8.07;;;;;;;20.83;69.73;98761.89;262172;1093;115669;-68
2021/07/12 19:26:40;;;;;;;8.83;5.57;;;;;;;20.77;69.77;98761.53;262669;1095;115219;-72
2021/07/12 19:31:44;;;;;;;9.05;5.35;;;;;;;20.79;70.06;98774.91;262953;1094;115148;-70
2021/07/12 19:36:48;;;;;;;;;;;;;;;20.72;69.95;98781.97;263057;1095;115786;-74
2021/07/12 19:41:52;;;;;;;7.33;5.47;;;;;;;20.63;70.08;98767.60;263038;1096;102400;-69
2021/07/12 19:46:56;;;;;;;6.23;4.83;;;;;;;20.60;70.18;98758.98;262985;1093;117643;-68
2021/07/12 19:51:59;;;;;;;6.38;4.45;;;;;;;20.55;70.02;98765.73;263039;1093;114904;-69
2021/07/12 19:57:03;;;;;;;8.10;5.25;;;;;;;20.51;70.03;98771.61;262999;1093;115264;-68
2021/07/12 20:02:07;;;;;;;7.88;5.25;;;;;;;20.48;70.21;98756.56;263032;1093;115524;-70
2021/07/12 20:07:12;;;;;;;6.37;5.30;;;;;;;20.42;69.88;98751.81;261467;1093;115243;-74
2021/07/12 20:12:16;;;;;;;130.48;93.15;;;;;;;20.40;70.75;98745.70;262643;1093;115552;-70
2021/07/12 20:17:21;;;;;;;;;;;;;;;20.44;70.57;98746.22;263027;1092;115602;-71
2021/07/12 20:22:25;;;;;;;6.00;4.95;;;;;;;20.42;70.59;98727.48;263061;1093;101801;-71
2021/07/12 20:27:30;;;;;;;11.47;5.50;;;;;;;20.41;70.87;98733.03;263026;1093;115205;-70
2021/07/12 20:32:34;;;;;;;6.40;5.80;;;;;;;20.33;70.36;98725.77;263001;1093;114630;-70
2021/07/12 20:37:42;;;;;;;5.98;5.18;;;;;;;20.25;70.47;98728.45;262978;1093;115894;-73
2021/07/12 20:42:46;;;;;;;11.27;6.40;;;;;;;20.18;70.20;98725.56;262968;1092;116033;-70
2021/07/12 20:47:50;;;;;;;9.28;5.28;;;;;;;20.14;70.50;98726.03;262966;1096;116116;-74
2021/07/12 20:52:54;;;;;;;;;;;;;;;20.09;70.65;98735.48;263099;1093;115383;-71
2021/07/12 20:57:57;;;;;;;6.43;5.73;;;;;;;20.13;71.11;98736.00;263132;1093;102102;-71
2021/07/12 21:03:01;;;;;;;7.95;5.53;;;;;;;20.13;70.97;98740.56;262942;1093;115531;-71
2021/07/12 21:08:06;;;;;;;8.20;5.30;;;;;;;20.12;70.68;98733.47;263006;1093;115278;-73
2021/07/12 21:13:12;;;;;;;11.33;6.48;;;;;;;20.08;70.72;98727.55;262968;1093;114996;-71
2021/07/12 21:19:20;;;;;;;8.48;6.65;;;;;;;20.00;70.96;98714.00;262711;1090;102989;-70
2021/07/12 21:24:24;;;;;;;10.58;6.08;;;;;;;20.00;71.36;98709.44;262683;1091;114664;-71
2021/07/12 21:29:28;;;;;;;7.98;5.43;;;;;;;20.07;71.15;98705.09;263102;1092;115392;-70
2021/07/12 21:34:32;;;;;;;8.93;6.48;;;;;;;20.06;70.97;98710.64;263012;1095;115520;-71
2021/07/12 21:39:37;;;;;;;9.50;6.70;;;;;;;20.05;71.30;98722.47;262136;1092;115463;-69
2021/07/12 21:47:33;;;;;;;13.28;8.50;;;;;;;20.15;71.43;98717.78;262915;1093;102856;-69
2021/07/12 21:52:40;;;;;;;17.93;12.35;;;;;;;20.10;71.28;98730.92;263106;1092;114341;-70
2021/07/12 21:57:44;;;;;;;17.13;12.53;;;;;;;20.04;71.22;98726.16;263094;1092;114523;-72
2021/07/12 22:02:48;;;;;;;;;;;;;;;19.96;71.09;98732.38;261110;1093;116006;-68
2021/07/12 22:08:10;;;;;;;12.03;8.83;;;;;;;19.87;71.23;98744.19;260813;1093;102952;-71
2021/07/12 22:13:21;;;;;;;9.20;7.47;;;;;;;19.81;71.20;98747.52;260681;1093;114820;-69
2021/07/12 22:18:26;;;;;;;430.48;307.98;;;;;;;19.78;71.65;98747.84;260983;1092;114608;-69
2021/07/12 22:28:08;;;;;;;8.67;7.73;;;;;;;19.74;71.47;98765.38;261084;1093;103161;-69
2021/07/12 22:33:25;;;;;;;8.00;7.13;;;;;;;19.70;71.62;98762.16;261516;1095;115770;-67
2021/07/12 22:38:29;;;;;;;11.23;5.73;;;;;;;19.65;71.86;98764.47;261251;1095;115654;-68
2021/07/12 22:43:41;;;;;;;8.13;5.50;;;;;;;19.69;71.92;98746.09;261004;1095;114851;-67
2021/07/12 22:48:45;;;;;;;9.10;6.50;;;;;;;19.80;72.53;98745.81;260909;1095;115533;-67
2021/07/12 22:53:49;;;;;;;12.23;7.15;;;;;;;19.83;72.20;98740.09;261305;1095;114444;-69
2021/07/12 22:59:00;;;;;;;11.23;7.70;;;;;;;19.82;72.21;98730.30;261259;1095;114290;-67
2021/07/12 23:04:04;;;;;;;16.20;9.70;;;;;;;19.76;71.94;98718.28;261509;1093;114634;-69
2021/07/12 23:09:10;;;;;;;21.07;14.77;;;;;;;19.69;71.98;98714.53;261713;1093;115147;-74
2021/07/12 23:14:14;;;;;;;25.78;16.45;;;;;;;19.70;72.26;98712.67;263170;1095;114826;-66
2021/07/12 23:19:18;;;;;;;24.53;12.50;;;;;;;19.69;72.13;98700.20;263197;1095;115186;-73